Time;durP1;ratioP1;P1;durP2;ratioP2;P2;SDS_P1;SDS_P2;PMS_P1;PMS_P2;Temp;Humidity;BMP_temperature;BMP_pressure;BME280_temperature;BME280_humidity;BME280_pressure;Samples;Min_cycle;Max_cycle;Signal;HPM_P1;HPM_P2
2023/03/31 00:00:59;;;;;;;;;;;11.60;99.90;;;;;;5155461;27;19919;-56
2023/03/31 00:03:25;;;;;;;;;;;11.50;99.90;;;;;;5156694;27;19911;-57
2023/03/31 00:05:57;;;;;;;;;;;11.50;99.90;;;;;;5156363;27;20175;-56
2023/03/31 00:08:23;;;;;;;;;;;11.50;99.90;;;;;;5156416;27;20297;-57
2023/03/31 00:10:49;;;;;;;;;;;11.50;99.90;;;;;;5156488;27;19908;-57
2023/03/31 00:13:15;;;;;;;;;;;11.50;99.90;;;;;;5155533;27;19911;-57
2023/03/31 00:15:40;;;;;;;;;;;11.40;99.90;;;;;;5156400;27;20325;-56
2023/03/31 00:18:06;;;;;;;;;;;11.40;99.90;;;;;;5156456;27;20350;-57
2023/03/31 00:20:36;;;;;;;;;;;11.40;99.90;;;;;;5155543;27;19959;-57
2023/03/31 00:23:02;;;;;;;;;;;11.30;99.90;;;;;;5156323;27;19908;-57
2023/03/31 00:25:28;;;;;;;;;;;11.30;99.90;;;;;;5156128;27;19911;-57
2023/03/31 00:27:53;;;;;;;;;;;11.20;99.90;;;;;;5155199;27;19911;-57
2023/03/31 00:30:19;;;;;;;;;;;11.10;99.90;;;;;;5155726;27;19914;-56
2023/03/31 00:32:45;;;;;;;;;;;11.00;99.90;;;;;;5155042;27;19959;-56
2023/03/31 00:35:11;;;;;;;;;;;10.90;99.90;;;;;;5155065;27;19942;-57
2023/03/31 00:37:36;;;;;;;;;;;10.80;99.90;;;;;;5155798;27;20429;-56
2023/03/31 00:40:08;;;;;;;;;;;10.80;99.90;;;;;;5155796;27;19994;-56
2023/03/31 00:42:38;;;;;;;;;;;10.70;99.90;;;;;;5155032;27;20074;-57
2023/03/31 00:45:13;;;;;;;;;;;10.70;99.90;;;;;;5155572;27;19911;-56
2023/03/31 00:47:42;;;;;;;;;;;10.60;99.90;;;;;;5155739;27;19911;-56
2023/03/31 00:50:20;;;;;;;;;;;10.60;99.90;;;;;;5154769;27;20402;-57
2023/03/31 00:52:47;;;;;;;;;;;10.50;99.90;;;;;;5155518;27;19950;-56
2023/03/31 00:55:15;;;;;;;;;;;10.40;99.90;;;;;;5154741;27;19918;-57
2023/03/31 00:57:41;;;;;;;;;;;10.30;99.90;;;;;;5155694;27;19907;-57
2023/03/31 01:00:14;;;;;;;;;;;10.20;99.90;;;;;;5155410;27;19907;-56
2023/03/31 01:02:45;;;;;;;;;;;10.20;99.90;;;;;;5154352;27;19926;-56
2023/03/31 01:05:10;;;;;;;;;;;10.10;99.90;;;;;;5155243;27;19911;-56
2023/03/31 01:07:45;;;;;;;;;;;10.00;99.90;;;;;;5155371;27;19918;-57
2023/03/31 01:10:10;;;;;;;;;;;10.00;99.90;;;;;;5154462;27;19946;-56
2023/03/31 01:12:37;;;;;;;;;;;9.90;99.90;;;;;;5155369;27;19907;-56
2023/03/31 01:15:03;;;;;;;;;;;9.90;99.90;;;;;;5154985;27;19907;-56
2023/03/31 01:17:29;;;;;;;;;;;9.80;99.90;;;;;;5154239;27;19907;-56
2023/03/31 01:19:55;;;;;;;;;;;9.80;99.90;;;;;;5154921;27;20369;-57
2023/03/31 01:22:39;;;;;;;;;;;9.80;99.90;;;;;;5154804;27;19907;-57
2023/03/31 01:25:04;;;;;;;;;;;9.80;99.90;;;;;;5153987;27;20285;-56
2023/03/31 01:27:36;;;;;;;;;;;9.80;99.90;;;;;;5155035;27;20426;-57
2023/03/31 01:30:13;;;;;;;;;;;9.80;99.90;;;;;;5154969;27;19989;-56
2023/03/31 01:32:45;;;;;;;;;;;9.80;99.90;;;;;;5154134;27;19907;-57
2023/03/31 01:35:13;;;;;;;;;;;9.80;99.90;;;;;;5154763;27;20285;-57
2023/03/31 01:37:59;;;;;;;;;;;9.80;99.90;;;;;;5153998;27;19911;-56
2023/03/31 01:40:28;;;;;;;;;;;9.80;99.90;;;;;;5154750;27;20354;-56
2023/03/31 01:43:01;;;;;;;;;;;9.80;99.90;;;;;;5154228;27;19911;-56
2023/03/31 01:45:27;;;;;;;;;;;9.80;99.90;;;;;;5153927;27;19915;-56
2023/03/31 01:47:57;;;;;;;;;;;9.80;99.90;;;;;;5154729;27;19918;-56
2023/03/31 01:50:29;;;;;;;;;;;9.80;99.90;;;;;;5154790;27;19959;-56
2023/03/31 01:53:02;;;;;;;;;;;9.80;99.90;;;;;;5153959;27;20281;-56
2023/03/31 01:55:36;;;;;;;;;;;9.70;99.90;;;;;;5154626;27;20323;-56
2023/03/31 01:58:04;;;;;;;;;;;9.70;99.90;;;;;;5154445;27;19907;-56
2023/03/31 02:00:32;;;;;;;;;;;9.80;99.90;;;;;;5153552;27;19907;-56
2023/03/31 02:02:58;;;;;;;;;;;9.80;99.90;;;;;;5154508;27;19937;-56
2023/03/31 02:05:25;;;;;;;;;;;9.80;99.90;;;;;;5154363;27;19934;-56
2023/03/31 02:07:53;;;;;;;;;;;9.90;99.90;;;;;;5153979;27;20217;-56
2023/03/31 02:10:20;;;;;;;;;;;9.90;99.90;;;;;;5154278;27;20503;-57
2023/03/31 02:12:46;;;;;;;;;;;9.90;99.90;;;;;;5153621;27;19909;-56
2023/03/31 02:15:18;;;;;;;;;;;9.90;99.90;;;;;;5135619;27;20266;-57
2023/03/31 02:17:47;;;;;;;;;;;9.80;99.90;;;;;;5154372;27;19911;-56
2023/03/31 02:20:14;;;;;;;;;;;9.80;99.90;;;;;;5153351;27;20002;-56
2023/03/31 02:22:42;;;;;;;;;;;9.80;99.90;;;;;;5154341;27;19907;-56
2023/03/31 02:25:10;;;;;;;;;;;9.80;99.90;;;;;;5154227;27;19907;-56
2023/03/31 02:27:38;;;;;;;;;;;9.80;99.90;;;;;;5153478;27;20327;-56
2023/03/31 02:30:05;;;;;;;;;;;9.80;99.90;;;;;;5154026;27;19950;-56
2023/03/31 02:32:36;;;;;;;;;;;9.70;99.90;;;;;;5154188;27;19907;-56
2023/03/31 02:35:01;;;;;;;;;;;9.70;99.90;;;;;;5153283;27;19907;-56
2023/03/31 02:37:28;;;;;;;;;;;9.70;99.90;;;;;;5154150;27;20284;-57
2023/03/31 02:39:55;;;;;;;;;;;9.70;99.90;;;;;;5154140;27;19911;-56
2023/03/31 02:42:20;;;;;;;;;;;9.80;99.90;;;;;;5153314;27;19907;-56
2023/03/31 02:44:46;;;;;;;;;;;9.70;99.90;;;;;;5154055;27;20273;-56
2023/03/31 02:47:13;;;;;;;;;;;9.70;99.90;;;;;;5153890;27;19915;-56
2023/03/31 02:49:40;;;;;;;;;;;9.70;99.90;;;;;;5153264;27;19943;-56
2023/03/31 02:52:21;;;;;;;;;;;9.80;99.90;;;;;;5153956;27;20013;-56
2023/03/31 02:54:49;;;;;;;;;;;9.70;99.90;;;;;;5154364;27;20353;-56
2023/03/31 02:57:38;;;;;;;;;;;9.80;99.90;;;;;;5157798;27;19907;-56
2023/03/31 03:00:09;;;;;;;;;;;9.80;99.90;;;;;;5158045;27;19914;-56
2023/03/31 03:02:37;;;;;;;;;;;9.80;99.90;;;;;;5156823;27;19919;-56
2023/03/31 03:05:27;;;;;;;;;;;9.80;99.90;;;;;;5157648;27;20308;-56
2023/03/31 03:08:11;;;;;;;;;;;9.80;99.90;;;;;;5157855;27;19922;-56
2023/03/31 03:10:36;;;;;;;;;;;9.80;99.90;;;;;;5156843;27;20340;-56
2023/03/31 03:13:01;;;;;;;;;;;9.80;99.90;;;;;;5157543;27;19945;-56
2023/03/31 03:15:30;;;;;;;;;;;9.80;99.90;;;;;;5157578;27;20365;-56
2023/03/31 03:17:56;;;;;;;;;;;9.80;99.90;;;;;;5156671;27;20422;-56
2023/03/31 03:20:22;;;;;;;;;;;9.80;99.90;;;;;;5157517;27;20404;-56
2023/03/31 03:22:47;;;;;;;;;;;9.90;99.90;;;;;;5157079;27;19915;-55
2023/03/31 03:25:16;;;;;;;;;;;9.90;99.90;;;;;;5156839;27;19917;-56
2023/03/31 03:27:41;;;;;;;;;;;9.90;99.90;;;;;;5157475;27;20009;-56
2023/03/31 03:30:08;;;;;;;;;;;10.00;99.90;;;;;;5156482;27;20006;-56
2023/03/31 03:32:34;;;;;;;;;;;10.00;99.90;;;;;;5157369;27;19918;-56
2023/03/31 03:35:00;;;;;;;;;;;10.00;99.90;;;;;;5157151;27;19907;-56
2023/03/31 03:37:25;;;;;;;;;;;10.00;99.90;;;;;;5156407;27;20273;-56
2023/03/31 03:39:51;;;;;;;;;;;10.10;99.90;;;;;;5157101;27;19907;-56
2023/03/31 03:42:16;;;;;;;;;;;10.10;99.90;;;;;;5157389;27;19950;-56
2023/03/31 03:44:42;;;;;;;;;;;10.10;99.90;;;;;;5156252;27;19907;-56
2023/03/31 03:47:07;;;;;;;;;;;10.20;99.90;;;;;;5156722;27;20397;-55
2023/03/31 03:49:33;;;;;;;;;;;10.20;99.90;;;;;;5156943;27;19915;-56
2023/03/31 03:51:58;;;;;;;;;;;10.20;99.90;;;;;;5155945;27;19907;-56
2023/03/31 03:54:24;;;;;;;;;;;10.20;99.90;;;;;;5156986;27;19984;-56
2023/03/31 03:56:49;;;;;;;;;;;10.20;99.90;;;;;;5156811;27;19961;-56
2023/03/31 03:59:15;;;;;;;;;;;10.20;99.90;;;;;;5155883;27;20281;-56
2023/03/31 04:01:40;;;;;;;;;;;10.30;99.90;;;;;;5156333;27;19919;-57
2023/03/31 04:04:06;;;;;;;;;;;10.30;99.90;;;;;;5156589;27;19907;-56
2023/03/31 04:06:31;;;;;;;;;;;10.30;99.90;;;;;;5155290;27;19922;-57
2023/03/31 04:08:57;;;;;;;;;;;10.30;99.90;;;;;;5156452;27;20421;-56
2023/03/31 04:11:23;;;;;;;;;;;10.30;99.90;;;;;;5156606;27;19914;-56
2023/03/31 04:13:48;;;;;;;;;;;10.30;99.90;;;;;;5155694;27;20282;-57
2023/03/31 04:16:15;;;;;;;;;;;10.30;99.90;;;;;;5156297;27;19949;-57
2023/03/31 04:18:43;;;;;;;;;;;10.20;99.90;;;;;;5156387;27;19955;-57
2023/03/31 04:21:11;;;;;;;;;;;10.30;99.90;;;;;;5155439;27;20397;-56
2023/03/31 04:23:37;;;;;;;;;;;10.30;99.90;;;;;;5156357;27;20001;-56
2023/03/31 04:26:07;;;;;;;;;;;10.20;99.90;;;;;;5156050;27;19911;-57
2023/03/31 04:28:33;;;;;;;;;;;10.20;99.90;;;;;;5156139;27;20365;-57
2023/03/31 04:30:59;;;;;;;;;;;10.20;99.90;;;;;;5156094;27;19907;-57
2023/03/31 04:33:25;;;;;;;;;;;10.20;99.90;;;;;;5155008;27;19932;-56
2023/03/31 04:35:51;;;;;;;;;;;10.20;99.90;;;;;;5155976;27;19973;-56
2023/03/31 04:38:18;;;;;;;;;;;10.20;99.90;;;;;;5155710;27;20319;-56
2023/03/31 04:40:46;;;;;;;;;;;10.20;99.90;;;;;;5155124;27;19944;-56
2023/03/31 04:43:12;;;;;;;;;;;10.20;99.90;;;;;;5155781;27;19907;-56
2023/03/31 04:45:37;;;;;;;;;;;10.20;99.90;;;;;;5155809;27;19911;-56
2023/03/31 04:48:03;;;;;;;;;;;10.20;99.90;;;;;;5154870;27;19912;-56
2023/03/31 04:50:28;;;;;;;;;;;10.20;99.90;;;;;;5155800;27;20094;-56
2023/03/31 04:52:54;;;;;;;;;;;10.20;99.90;;;;;;5155585;27;20266;-56
2023/03/31 04:55:20;;;;;;;;;;;10.10;99.90;;;;;;5155004;27;19959;-56
2023/03/31 04:57:45;;;;;;;;;;;10.20;99.90;;;;;;5155590;27;20429;-56
2023/03/31 05:00:11;;;;;;;;;;;10.10;99.90;;;;;;5155615;27;19907;-56
2023/03/31 05:02:36;;;;;;;;;;;10.10;99.90;;;;;;5154435;27;19950;-56
2023/03/31 05:05:03;;;;;;;;;;;10.10;99.90;;;;;;5155349;27;20331;-56
2023/03/31 05:07:28;;;;;;;;;;;10.10;99.90;;;;;;5155373;27;19922;-56
2023/03/31 05:09:54;;;;;;;;;;;10.20;99.90;;;;;;5154532;27;19915;-56
2023/03/31 05:12:20;;;;;;;;;;;10.20;99.90;;;;;;5155234;27;19927;-56
2023/03/31 05:14:45;;;;;;;;;;;10.20;99.90;;;;;;5155174;27;20002;-56
2023/03/31 05:17:11;;;;;;;;;;;10.10;99.90;;;;;;5153582;27;19956;-54
2023/03/31 05:19:36;;;;;;;;;;;10.10;99.90;;;;;;5155230;27;19967;-56
2023/03/31 05:22:02;;;;;;;;;;;10.10;99.90;;;;;;5155087;27;20372;-56
2023/03/31 05:24:28;;;;;;;;;;;10.10;99.90;;;;;;5154099;27;20001;-55
2023/03/31 05:26:54;;;;;;;;;;;10.10;99.90;;;;;;5154911;27;19918;-56
2023/03/31 05:29:20;;;;;;;;;;;10.10;99.90;;;;;;5154820;27;20006;-56
2023/03/31 05:31:46;;;;;;;;;;;10.10;99.90;;;;;;5154227;27;19950;-56
2023/03/31 05:34:12;;;;;;;;;;;10.10;99.90;;;;;;5154790;27;19908;-56
2023/03/31 05:36:37;;;;;;;;;;;10.10;99.90;;;;;;5154103;27;19908;-56
2023/03/31 05:39:07;;;;;;;;;;;10.20;99.90;;;;;;5154739;27;20424;-56
2023/03/31 05:41:33;;;;;;;;;;;10.20;99.90;;;;;;5154791;27;19907;-56
2023/03/31 05:43:58;;;;;;;;;;;10.20;99.90;;;;;;5153890;27;19914;-56
2023/03/31 05:46:25;;;;;;;;;;;10.20;99.90;;;;;;5154544;27;19921;-56
2023/03/31 05:48:51;;;;;;;;;;;10.20;99.90;;;;;;5154708;27;19908;-56
2023/03/31 05:51:16;;;;;;;;;;;10.20;99.90;;;;;;5153757;27;19907;-56
2023/03/31 05:53:42;;;;;;;;;;;10.20;99.90;;;;;;5154649;27;19920;-55
2023/03/31 05:56:07;;;;;;;;;;;10.20;99.90;;;;;;5154616;27;20274;-56
2023/03/31 05:58:34;;;;;;;;;;;10.20;99.90;;;;;;5153835;27;20373;-56
2023/03/31 06:01:10;;;;;;;;;;;10.20;99.90;;;;;;5154028;27;19919;-56
2023/03/31 06:03:37;;;;;;;;;;;10.20;99.90;;;;;;5154683;27;19914;-55
2023/03/31 06:06:04;;;;;;;;;;;10.20;99.90;;;;;;5153492;27;19971;-55
2023/03/31 06:08:30;;;;;;;;;;;10.20;99.90;;;;;;5154475;27;19907;-56
2023/03/31 06:10:55;;;;;;;;;;;10.20;99.90;;;;;;5154230;27;19940;-56
2023/03/31 06:13:21;;;;;;;;;;;10.20;99.90;;;;;;5153562;27;19907;-56
2023/03/31 06:15:53;;;;;;;;;;;10.20;99.90;;;;;;5154319;27;19907;-56
2023/03/31 06:18:19;;;;;;;;;;;10.20;99.90;;;;;;5154207;27;19907;-55
2023/03/31 06:20:44;;;;;;;;;;;10.20;99.90;;;;;;5153592;27;19913;-55
2023/03/31 06:23:10;;;;;;;;;;;10.30;99.90;;;;;;5154278;27;19939;-56
2023/03/31 06:25:36;;;;;;;;;;;10.30;99.90;;;;;;5154293;27;20357;-56
2023/03/31 06:28:02;;;;;;;;;;;10.30;99.90;;;;;;5153402;27;20321;-55
2023/03/31 06:30:27;;;;;;;;;;;10.30;99.90;;;;;;5158511;27;19950;-55
2023/03/31 06:32:53;;;;;;;;;;;10.30;99.90;;;;;;5157626;27;20302;-55
2023/03/31 06:35:18;;;;;;;;;;;10.30;99.90;;;;;;5158378;27;20006;-54
2023/03/31 06:37:44;;;;;;;;;;;10.30;99.90;;;;;;5158426;27;19911;-54
2023/03/31 06:40:10;;;;;;;;;;;10.30;99.90;;;;;;5157499;27;20369;-52
2023/03/31 06:42:35;;;;;;;;;;;10.30;99.90;;;;;;5157985;27;19907;-54
2023/03/31 06:45:00;;;;;;;;;;;10.30;99.90;;;;;;5158215;27;19907;-53
2023/03/31 06:47:26;;;;;;;;;;;10.40;99.90;;;;;;5157409;27;19967;-53
2023/03/31 06:49:51;;;;;;;;;;;10.40;99.90;;;;;;5158083;27;20349;-53
2023/03/31 06:52:17;;;;;;;;;;;10.40;99.90;;;;;;5158039;27;19907;-53
2023/03/31 06:54:42;;;;;;;;;;;10.40;99.90;;;;;;5157222;27;19995;-53
2023/03/31 06:57:08;;;;;;;;;;;10.40;99.90;;;;;;5157868;27;19914;-53
2023/03/31 06:59:33;;;;;;;;;;;10.40;99.90;;;;;;5157878;27;20281;-53
2023/03/31 07:01:59;;;;;;;;;;;10.40;99.90;;;;;;5156777;27;19919;-52
2023/03/31 07:04:24;;;;;;;;;;;10.40;99.90;;;;;;5157921;27;20365;-53
2023/03/31 07:06:50;;;;;;;;;;;10.40;99.90;;;;;;5157634;27;20433;-53
2023/03/31 07:09:17;;;;;;;;;;;10.40;99.90;;;;;;5156898;27;19907;-53
2023/03/31 07:11:42;;;;;;;;;;;10.40;99.90;;;;;;5157716;27;20004;-52
2023/03/31 07:14:08;;;;;;;;;;;10.30;99.90;;;;;;5157523;27;19958;-53
2023/03/31 07:16:35;;;;;;;;;;;10.40;99.90;;;;;;5156902;27;19914;-50
2023/03/31 07:19:03;;;;;;;;;;;10.40;99.90;;;;;;5157551;27;19907;-52
2023/03/31 07:21:28;;;;;;;;;;;10.40;99.90;;;;;;5157474;27;19907;-52
2023/03/31 07:23:54;;;;;;;;;;;10.40;99.90;;;;;;5156608;27;19963;-52
2023/03/31 07:26:20;;;;;;;;;;;10.40;99.90;;;;;;5157252;27;20393;-53
2023/03/31 07:28:45;;;;;;;;;;;10.50;99.90;;;;;;5157351;27;20019;-52
2023/03/31 07:31:11;;;;;;;;;;;10.50;99.90;;;;;;5156454;27;19907;-52
2023/03/31 07:33:37;;;;;;;;;;;10.50;99.90;;;;;;5157339;27;19907;-52
2023/03/31 07:36:04;;;;;;;;;;;10.50;99.90;;;;;;5156378;27;19907;-50
2023/03/31 07:38:29;;;;;;;;;;;10.50;99.90;;;;;;5157180;27;20417;-53
2023/03/31 07:40:55;;;;;;;;;;;10.60;99.90;;;;;;5156350;27;19934;-51
2023/03/31 07:43:20;;;;;;;;;;;10.60;99.90;;;;;;5156213;27;20333;-51
2023/03/31 07:45:46;;;;;;;;;;;10.60;99.90;;;;;;5156997;27;19915;-53
2023/03/31 07:48:11;;;;;;;;;;;10.60;99.90;;;;;;5156925;27;20377;-51
2023/03/31 07:50:37;;;;;;;;;;;10.60;99.90;;;;;;5156243;27;20006;-51
2023/03/31 07:53:02;;;;;;;;;;;10.70;99.90;;;;;;5156786;27;20389;-51
2023/03/31 07:55:28;;;;;;;;;;;10.70;99.90;;;;;;5156638;27;19907;-52
2023/03/31 07:57:53;;;;;;;;;;;10.70;99.90;;;;;;5156097;27;19943;-51
2023/03/31 08:00:20;;;;;;;;;;;10.80;99.90;;;;;;5156531;27;19911;-50
2023/03/31 08:02:45;;;;;;;;;;;10.80;99.90;;;;;;5156718;27;19915;-50
2023/03/31 08:05:12;;;;;;;;;;;10.90;99.90;;;;;;5155858;27;19907;-51
2023/03/31 08:07:39;;;;;;;;;;;10.90;99.90;;;;;;5156871;27;19993;-49
2023/03/31 08:10:05;;;;;;;;;;;10.90;99.90;;;;;;5156471;27;19911;-51
2023/03/31 08:12:31;;;;;;;;;;;11.00;99.90;;;;;;5155645;27;19915;-53
2023/03/31 08:14:57;;;;;;;;;;;11.00;99.90;;;;;;5156531;27;19907;-53
2023/03/31 08:17:22;;;;;;;;;;;11.10;99.90;;;;;;5156362;27;19907;-51
2023/03/31 08:19:49;;;;;;;;;;;11.10;99.90;;;;;;5155683;27;20383;-52
2023/03/31 08:22:14;;;;;;;;;;;11.10;99.90;;;;;;5156303;27;19929;-52
2023/03/31 08:24:39;;;;;;;;;;;11.10;99.90;;;;;;5156512;27;20361;-52
2023/03/31 08:27:05;;;;;;;;;;;11.10;99.90;;;;;;5155323;27;20365;-50
2023/03/31 08:29:30;;;;;;;;;;;11.10;99.90;;;;;;5156225;27;19907;-51
2023/03/31 08:31:56;;;;;;;;;;;11.10;99.90;;;;;;5156060;27;19911;-52
2023/03/31 08:34:21;;;;;;;;;;;11.10;99.90;;;;;;5155237;27;19913;-52
2023/03/31 08:36:47;;;;;;;;;;;11.10;99.90;;;;;;5156070;27;19907;-51
2023/03/31 08:39:13;;;;;;;;;;;11.10;99.90;;;;;;5155869;27;20300;-53
2023/03/31 08:41:53;;;;;;;;;;;11.10;99.90;;;;;;5155164;27;19993;-50
2023/03/31 08:44:25;;;;;;;;;;;11.10;99.90;;;;;;5155876;27;20011;-51
2023/03/31 08:46:53;;;;;;;;;;;11.10;99.90;;;;;;5155036;27;20365;-46
2023/03/31 08:49:19;;;;;;;;;;;11.10;99.90;;;;;;5155775;27;20281;-49
2023/03/31 08:51:47;;;;;;;;;;;11.10;99.90;;;;;;5155122;27;19911;-50
2023/03/31 08:54:16;;;;;;;;;;;11.20;99.90;;;;;;5154590;27;19911;-50
2023/03/31 08:56:45;;;;;;;;;;;11.20;99.90;;;;;;5155672;27;19907;-51
2023/03/31 08:59:16;;;;;;;;;;;11.30;99.90;;;;;;5155527;27;19911;-47
2023/03/31 09:01:52;;;;;;;;;;;11.30;99.90;;;;;;5154572;27;19959;-47
2023/03/31 09:04:40;;;;;;;;;;;11.40;99.90;;;;;;5155635;27;19907;-48
2023/03/31 09:07:19;;;;;;;;;;;11.40;99.90;;;;;;5155604;27;19915;-49
2023/03/31 09:09:56;;;;;;;;;;;11.40;99.90;;;;;;5154697;27;19959;-55
2023/03/31 09:12:24;;;;;;;;;;;11.50;99.90;;;;;;5155426;27;19959;-54
2023/03/31 09:14:57;;;;;;;;;;;11.50;99.90;;;;;;5154498;27;19915;-54
2023/03/31 09:17:25;;;;;;;;;;;11.50;99.90;;;;;;5155247;27;19991;-55
2023/03/31 09:19:57;;;;;;;;;;;11.60;99.90;;;;;;5155265;27;19907;-57
2023/03/31 09:22:25;;;;;;;;;;;11.50;99.90;;;;;;5154398;27;19913;-55
2023/03/31 09:25:04;;;;;;;;;;;11.50;99.90;;;;;;5155200;27;19907;-56
2023/03/31 09:27:31;;;;;;;;;;;11.60;99.90;;;;;;5154927;27;20333;-55
2023/03/31 09:29:58;;;;;;;;;;;11.50;99.90;;;;;;5154196;27;19960;-57
2023/03/31 09:32:27;;;;;;;;;;;11.50;99.90;;;;;;5155126;27;19907;-53
2023/03/31 09:34:56;;;;;;;;;;;11.50;99.90;;;;;;5154953;27;19907;-55
2023/03/31 09:37:23;;;;;;;;;;;11.40;99.90;;;;;;5154022;27;19919;-56
2023/03/31 09:39:48;;;;;;;;;;;11.50;99.90;;;;;;5154788;27;19934;-57
2023/03/31 09:42:14;;;;;;;;;;;11.50;99.90;;;;;;5154707;27;19913;-51
2023/03/31 09:44:41;;;;;;;;;;;11.50;99.90;;;;;;5154025;27;20001;-55
2023/03/31 09:47:13;;;;;;;;;;;11.60;99.90;;;;;;5154665;27;19923;-56
2023/03/31 09:49:40;;;;;;;;;;;11.60;99.90;;;;;;5154079;27;20365;-55
2023/03/31 09:52:21;;;;;;;;;;;11.60;99.90;;;;;;5154563;27;19955;-53
2023/03/31 09:54:49;;;;;;;;;;;11.60;99.90;;;;;;5154718;27;19907;-55
2023/03/31 09:57:22;;;;;;;;;;;11.60;99.90;;;;;;5153774;27;20010;-56
2023/03/31 09:59:50;;;;;;;;;;;11.70;99.90;;;;;;5154711;27;19959;-55
2023/03/31 10:02:36;;;;;;;;;;;11.60;99.90;;;;;;5154126;27;19919;-53
2023/03/31 10:05:03;;;;;;;;;;;11.70;99.90;;;;;;5153324;27;19911;-55
2023/03/31 10:07:29;;;;;;;;;;;11.70;99.90;;;;;;5154452;27;19915;-55
2023/03/31 10:09:55;;;;;;;;;;;11.80;99.90;;;;;;5154502;27;19907;-56
2023/03/31 10:12:23;;;;;;;;;;;11.80;99.90;;;;;;5153632;27;19915;-54
2023/03/31 10:14:50;;;;;;;;;;;11.90;99.90;;;;;;5154418;27;19907;-53
2023/03/31 10:17:17;;;;;;;;;;;11.90;99.90;;;;;;5154328;27;19915;-52
2023/03/31 10:19:46;;;;;;;;;;;12.00;99.90;;;;;;5153611;27;19918;-53
2023/03/31 10:22:25;;;;;;;;;;;12.00;99.90;;;;;;5154262;27;20358;-54
2023/03/31 10:24:51;;;;;;;;;;;12.00;99.90;;;;;;5153631;27;20357;-52
2023/03/31 10:27:22;;;;;;;;;;;12.00;99.90;;;;;;5154427;27;19923;-54
2023/03/31 10:29:50;;;;;;;;;;;12.10;99.90;;;;;;5154211;27;19907;-55
2023/03/31 10:32:29;;;;;;;;;;;12.20;99.90;;;;;;5153484;27;19911;-51
2023/03/31 10:34:56;;;;;;;;;;;12.20;99.90;;;;;;5154237;27;19907;-54
2023/03/31 10:37:23;;;;;;;;;;;12.40;99.90;;;;;;5154217;27;20350;-52
2023/03/31 10:39:59;;;;;;;;;;;12.50;99.90;;;;;;5153496;27;19914;-53
2023/03/31 10:42:26;;;;;;;;;;;12.50;99.90;;;;;;5154053;27;20437;-53
2023/03/31 10:45:12;;;;;;;;;;;12.60;99.90;;;;;;5154153;27;20060;-53
2023/03/31 10:47:38;;;;;;;;;;;12.60;99.90;;;;;;5152520;27;19922;-53
2023/03/31 10:50:11;;;;;;;;;;;12.60;99.90;;;;;;5154059;27;19952;-52
2023/03/31 10:52:42;;;;;;;;;;;12.60;99.90;;;;;;5154027;27;19998;-54
2023/03/31 10:55:11;;;;;;;;;;;12.60;99.90;;;;;;5153221;27;19907;-54
2023/03/31 10:57:52;;;;;;;;;;;12.60;99.90;;;;;;5154104;27;20001;-53
2023/03/31 11:00:24;;;;;;;;;;;12.60;99.90;;;;;;5153000;27;19911;-53
2023/03/31 11:03:02;;;;;;;;;;;12.60;99.90;;;;;;5154058;27;19919;-55
2023/03/31 11:05:27;;;;;;;;;;;12.50;99.90;;;;;;5154065;27;19922;-53
2023/03/31 11:07:56;;;;;;;;;;;12.50;99.90;;;;;;5153011;27;20001;-54
2023/03/31 11:10:21;;;;;;;;;;;12.40;99.90;;;;;;5153858;27;19912;-54
2023/03/31 11:12:50;;;;;;;;;;;12.30;99.90;;;;;;5153866;27;19914;-54
2023/03/31 11:15:20;;;;;;;;;;;12.30;99.90;;;;;;5153293;27;19907;-54
2023/03/31 11:17:49;;;;;;;;;;;12.30;99.90;;;;;;5157454;27;19908;-54
2023/03/31 11:20:24;;;;;;;;;;;12.30;99.90;;;;;;5157465;27;20361;-54
2023/03/31 11:23:08;;;;;;;;;;;12.30;99.90;;;;;;5138480;27;19914;-53
2023/03/31 11:25:52;;;;;;;;;;;12.50;99.90;;;;;;5157544;27;19907;-54
2023/03/31 11:28:30;;;;;;;;;;;12.80;99.90;;;;;;5156621;27;20330;-54
2023/03/31 11:31:14;;;;;;;;;;;13.00;99.90;;;;;;5157273;27;19915;-51
2023/03/31 11:33:46;;;;;;;;;;;13.10;99.90;;;;;;5157219;27;20307;-54
2023/03/31 11:36:21;;;;;;;;;;;13.20;99.90;;;;;;5156702;27;20322;-54
2023/03/31 11:38:52;;;;;;;;;;;13.20;99.90;;;;;;5157229;27;19913;-51
2023/03/31 11:41:19;;;;;;;;;;;13.30;99.90;;;;;;5157049;27;19987;-55
2023/03/31 11:43:53;;;;;;;;;;;13.20;99.90;;;;;;5156447;27;19911;-52
2023/03/31 11:46:24;;;;;;;;;;;13.20;99.90;;;;;;5156856;27;19915;-53
2023/03/31 11:48:58;;;;;;;;;;;13.10;99.90;;;;;;5156952;27;19941;-53
2023/03/31 11:51:43;;;;;;;;;;;13.10;99.90;;;;;;5156289;27;20277;-55
2023/03/31 11:54:14;;;;;;;;;;;13.10;99.90;;;;;;5138598;27;19935;-52
2023/03/31 11:56:40;;;;;;;;;;;13.20;99.90;;;;;;5156232;27;19907;-54
2023/03/31 11:59:06;;;;;;;;;;;13.20;99.90;;;;;;5156804;27;19980;-54
2023/03/31 12:01:35;;;;;;;;;;;13.40;99.90;;;;;;5156489;27;19979;-54
2023/03/31 12:04:03;;;;;;;;;;;13.50;99.90;;;;;;5155960;27;19993;-52
2023/03/31 12:06:34;;;;;;;;;;;13.60;99.90;;;;;;5156742;27;20172;-51
2023/03/31 12:09:03;;;;;;;;;;;13.70;99.90;;;;;;5156527;27;19907;-54
2023/03/31 12:11:40;;;;;;;;;;;13.90;99.90;;;;;;5155728;27;19907;-54
2023/03/31 12:14:19;;;;;;;;;;;14.10;99.90;;;;;;5156430;27;19907;-54
2023/03/31 12:16:47;;;;;;;;;;;14.20;99.90;;;;;;5156619;27;20258;-53
2023/03/31 12:19:15;;;;;;;;;;;14.20;99.90;;;;;;5155573;27;19983;-55
2023/03/31 12:21:46;;;;;;;;;;;14.10;99.90;;;;;;5156358;27;19942;-55
2023/03/31 12:24:12;;;;;;;;;;;14.10;99.90;;;;;;5156302;27;19914;-56
2023/03/31 12:26:56;;;;;;;;;;;14.00;99.90;;;;;;5155152;27;20037;-54
2023/03/31 12:29:26;;;;;;;;;;;13.90;99.90;;;;;;5156213;27;19911;-53
2023/03/31 12:31:53;;;;;;;;;;;13.80;99.90;;;;;;5155456;27;19907;-55
2023/03/31 12:34:20;;;;;;;;;;;13.80;99.90;;;;;;5156114;27;19918;-55
2023/03/31 12:37:05;;;;;;;;;;;13.80;99.90;;;;;;5156024;27;19983;-54
2023/03/31 12:39:38;;;;;;;;;;;13.90;99.90;;;;;;5155197;27;20002;-54
2023/03/31 12:42:09;;;;;;;;;;;14.10;99.90;;;;;;5155964;27;19957;-55
2023/03/31 12:44:38;;;;;;;;;;;14.40;99.90;;;;;;5155880;27;20383;-54
2023/03/31 12:47:20;;;;;;;;;;;14.90;99.90;;;;;;5155277;27;19915;-54
2023/03/31 12:49:49;;;;;;;;;;;15.40;99.90;;;;;;5155911;27;19907;-51
2023/03/31 12:52:23;;;;;;;;;;;15.80;99.90;;;;;;5155645;27;19948;-54
2023/03/31 12:55:08;;;;;;;;;;;15.90;99.90;;;;;;5154955;27;20002;-54
2023/03/31 12:57:33;;;;;;;;;;;15.80;99.90;;;;;;5155629;27;19911;-54
2023/03/31 13:00:11;;;;;;;;;;;15.60;99.90;;;;;;5154653;27;20243;-55
2023/03/31 13:02:37;;;;;;;;;;;15.50;99.90;;;;;;5155331;27;19919;-56
2023/03/31 13:05:21;;;;;;;;;;;15.20;99.90;;;;;;5155467;27;19913;-54
2023/03/31 13:07:46;;;;;;;;;;;15.00;99.90;;;;;;5154525;27;20277;-53
2023/03/31 13:10:12;;;;;;;;;;;14.80;99.90;;;;;;5155358;27;19915;-53
2023/03/31 13:12:37;;;;;;;;;;;14.70;99.90;;;;;;5155378;27;19907;-53
2023/03/31 13:15:04;;;;;;;;;;;14.50;99.90;;;;;;5154441;27;19952;-52
2023/03/31 13:17:31;;;;;;;;;;;14.40;99.90;;;;;;5155345;27;19914;-52
2023/03/31 13:20:15;;;;;;;;;;;14.40;99.90;;;;;;5155144;27;20311;-52
2023/03/31 13:22:44;;;;;;;;;;;14.40;99.90;;;;;;5154359;27;20269;-54
2023/03/31 13:25:25;;;;;;;;;;;14.40;99.90;;;;;;5155071;27;19907;-53
2023/03/31 13:27:52;;;;;;;;;;;14.30;99.90;;;;;;5154286;27;20251;-52
2023/03/31 13:30:36;;;;;;;;;;;14.20;99.90;;;;;;5154966;27;19959;-54
2023/03/31 13:33:09;;;;;;;;;;;14.10;99.90;;;;;;5154929;27;19942;-51
2023/03/31 13:35:36;;;;;;;;;;;14.10;99.90;;;;;;5154133;27;19907;-54
2023/03/31 13:38:28;;;;;;;;;;;14.00;99.90;;;;;;5154367;27;19907;-54
2023/03/31 13:40:59;;;;;;;;;;;14.00;99.90;;;;;;5149674;27;19907;-52
2023/03/31 13:43:45;;;;;;;;;;;13.90;99.90;;;;;;5153985;27;20315;-55
2023/03/31 13:46:13;;;;;;;;;;;13.80;99.90;;;;;;5154777;27;19915;-51
2023/03/31 13:49:06;;;;;;;;;;;13.80;99.90;;;;;;5154747;27;20365;-53
2023/03/31 13:51:50;;;;;;;;;;;13.70;99.90;;;;;;5154803;27;19914;-53
2023/03/31 13:54:42;;;;;;;;;;;13.60;99.90;;;;;;5154687;27;19907;-52
2023/03/31 13:57:22;;;;;;;;;;;13.60;99.90;;;;;;5113783;27;20027;-54
2023/03/31 14:00:00;;;;;;;;;;;13.50;99.90;;;;;;5154675;27;19907;-55
2023/03/31 14:02:26;;;;;;;;;;;13.50;99.90;;;;;;5154286;27;19923;-54
2023/03/31 14:04:54;;;;;;;;;;;13.50;99.90;;;;;;5153754;27;19940;-55
2023/03/31 14:07:30;;;;;;;;;;;13.50;99.90;;;;;;5154341;27;19938;-53
2023/03/31 14:09:58;;;;;;;;;;;13.50;99.90;;;;;;5153727;27;19961;-53
2023/03/31 14:12:23;;;;;;;;;;;13.60;99.90;;;;;;5154423;27;19907;-52
2023/03/31 14:14:53;;;;;;;;;;;13.60;99.90;;;;;;5154650;27;19997;-55
2023/03/31 14:17:19;;;;;;;;;;;13.50;99.90;;;;;;5153592;27;20323;-53
2023/03/31 14:19:59;;;;;;;;;;;13.40;99.90;;;;;;5154343;27;20265;-53
2023/03/31 14:22:36;;;;;;;;;;;13.30;99.90;;;;;;5154443;27;20342;-47
2023/03/31 14:25:04;;;;;;;;;;;13.10;99.90;;;;;;5153635;27;19907;-51
2023/03/31 14:27:42;;;;;;;;;;;13.00;99.90;;;;;;5154210;27;19967;-49
2023/03/31 14:30:28;;;;;;;;;;;13.00;99.90;;;;;;5154262;27;19914;-53